Nearby METAR Reports

 

EGQL - Leuchars Raf, United Kingdom
Distance from station: SW 11mi, 17km
Updated: 22/01/2019 05:50
Clear
Clear
 Wind from WNW
Wind: WNW 7 mph , 11 km/h
Temperature: 1°C
Wind Chill: -2°C
Dew Point: -1°C
Humidity: 87%
Barometer: 995 hPa
Summary: Clear
Visibility: greater than 7 miles , 10 km
2019/01/22 05:50 EGQL 220550Z 29006KT CAVOK 01/M01 Q0995 BLU
EGPN - Dundee/Riverside, United Kingdom
Distance from station: WSW 13mi, 20km
Updated: 22/01/2019 06:20
Few Clouds
Few Clouds
 Wind from NW
Wind: NW 5 mph , 7 km/h
Temperature: 1°C
Wind Chill: -2°C
Dew Point: -1°C
Humidity: 87%
Barometer: 995 hPa
Clouds: Few Clouds
Visibility: 6 miles , 10 km
Cloud details: Few Clouds 914 m
2019/01/22 06:20 EGPN 220620Z 31004KT 9999 FEW030 01/M01 Q0995
 
EGPH - Edinburgh Airpor, United Kingdom
Distance from station: SSW 46mi, 74km
Updated: 22/01/2019 06:20
Clear
Clear
 Wind from W
Wind: W 9 mph , 15 km/h
Temperature: 0°C
Wind Chill: -4°C
Dew Point: -1°C
Humidity: 93%
Barometer: 997 hPa
Summary: Clear
Visibility: greater than 7 miles , 10 km
2019/01/22 06:20 EGPH 220620Z 26008KT CAVOK 00/M01 Q0997
EGPD - Aberdeen/Dyce, United Kingdom
Distance from station: NNE 51mi, 82km
Updated: 22/01/2019 06:20
Clear
Clear
 Wind from W
Wind: W 7 mph , 11 km/h
Temperature: 2°C
Wind Chill: -1°C
Dew Point: -1°C
Humidity: 81%
Barometer: 994 hPa
Clouds: Clear
Visibility: 6 miles , 10 km
2019/01/22 06:20 EGPD 220620Z AUTO 27006KT 9999 NCD 02/M01 Q0994 NOSIG